Time;durP1;ratioP1;P1;durP2;ratioP2;P2;SDS_P1;SDS_P2;PMS_P1;PMS_P2;Temp;Humidity;BMP_temperature;BMP_pressure;BME280_temperature;BME280_humidity;BME280_pressure;Samples;Min_cycle;Max_cycle;Signal;HPM_P1;HPM_P2
2024/04/01 00:01:58;;;;;;;0.10;0.10;;;11.40;1.00;;;;;;4989993;28;20074;-83
2024/04/01 00:04:24;;;;;;;0.10;0.10;;;11.30;1.00;;;;;;4999810;28;20085;-83
2024/04/01 00:06:50;;;;;;;0.10;0.10;;;11.50;1.00;;;;;;4996855;28;20077;-83
2024/04/01 00:09:18;;;;;;;0.10;0.10;;;11.20;1.00;;;;;;4992796;28;20046;-84
2024/04/01 00:11:43;;;;;;;0.20;0.20;;;11.20;1.00;;;;;;4983516;28;20069;-83
2024/04/01 00:14:09;;;;;;;0.20;0.20;;;11.20;1.00;;;;;;4974514;28;20051;-84
2024/04/01 00:16:35;;;;;;;0.20;0.20;;;11.10;1.00;;;;;;4973704;28;20051;-83
2024/04/01 00:19:00;;;;;;;0.10;0.10;;;11.20;1.00;;;;;;4970799;28;20051;-83
2024/04/01 00:21:26;;;;;;;0.10;0.10;;;11.00;1.00;;;;;;4973655;28;20076;-84
2024/04/01 00:23:56;;;;;;;0.20;0.20;;;10.90;1.00;;;;;;4972506;28;20493;-83
2024/04/01 00:26:22;;;;;;;0.10;0.10;;;10.90;1.00;;;;;;4979233;28;20553;-83
2024/04/01 00:28:48;;;;;;;0.20;0.20;;;11.00;1.00;;;;;;4991247;28;20058;-84
2024/04/01 00:31:13;;;;;;;0.10;0.10;;;10.80;1.00;;;;;;4992770;28;20174;-84
2024/04/01 00:33:39;;;;;;;0.10;0.10;;;10.70;1.00;;;;;;4990213;28;20462;-83
2024/04/01 00:36:05;;;;;;;0.20;0.20;;;10.80;1.00;;;;;;4992225;28;20059;-84
2024/04/01 00:38:30;;;;;;;0.20;0.20;;;10.70;1.00;;;;;;4991797;28;20050;-83
2024/04/01 00:40:56;;;;;;;0.17;0.17;;;10.70;1.00;;;;;;4991706;28;20050;-84
2024/04/01 00:43:22;;;;;;;0.15;0.15;;;10.70;1.00;;;;;;4992588;28;20477;-83
2024/04/01 00:45:48;;;;;;;0.20;0.20;;;10.60;1.00;;;;;;4991943;28;20058;-83
2024/04/01 00:48:16;;;;;;;0.20;0.20;;;10.60;1.00;;;;;;4987314;28;20153;-83
2024/04/01 00:50:46;;;;;;;0.10;0.10;;;10.50;1.00;;;;;;4988100;28;20046;-83
2024/04/01 00:53:12;;;;;;;0.10;0.10;;;10.50;1.00;;;;;;4992751;28;20069;-82
2024/04/01 00:55:41;;;;;;;0.10;0.10;;;10.50;1.00;;;;;;4990913;28;20065;-82
2024/04/01 00:58:07;;;;;;;0.10;0.10;;;10.90;1.00;;;;;;4991643;28;20137;-83
2024/04/01 01:00:33;;;;;;;0.10;0.10;;;10.50;1.00;;;;;;4990548;28;20054;-83
2024/04/01 01:03:00;;;;;;;0.10;0.10;;;10.60;1.00;;;;;;4990333;28;20072;-83
2024/04/01 01:05:28;;;;;;;0.10;0.10;;;10.50;1.00;;;;;;4991817;28;20062;-83
2024/04/01 01:07:54;;;;;;;0.13;0.13;;;10.80;1.00;;;;;;4990450;28;20073;-83
2024/04/01 01:10:21;;;;;;;0.20;0.20;;;10.60;1.00;;;;;;4993193;28;20046;-83
2024/04/01 01:12:46;;;;;;;0.17;0.17;;;10.60;1.00;;;;;;4991156;28;20035;-83
2024/04/01 01:15:15;;;;;;;0.10;0.10;;;10.60;1.00;;;;;;4990148;28;20042;-84
2024/04/01 01:17:40;;;;;;;0.10;0.10;;;10.30;1.00;;;;;;4991764;28;20091;-83
2024/04/01 01:20:11;;;;;;;0.10;0.10;;;11.00;1.00;;;;;;4990612;28;20133;-84
2024/04/01 01:22:38;;;;;;;0.20;0.20;;;10.60;1.00;;;;;;4992332;28;20154;-84
2024/04/01 01:25:07;;;;;;;0.10;0.10;;;10.60;1.00;;;;;;4991387;28;20474;-84
2024/04/01 01:27:36;;;;;;;0.20;0.20;;;10.60;1.00;;;;;;4990578;28;20042;-84
2024/04/01 01:30:16;;;;;;;0.10;0.10;;;10.50;1.00;;;;;;4998373;28;20068;-83
2024/04/01 01:32:52;;;;;;;0.10;0.10;;;10.50;1.00;;;;;;4997886;28;20058;-83
2024/04/01 01:35:21;;;;;;;0.10;0.10;;;10.50;1.00;;;;;;4990903;28;20442;-83
2024/04/01 01:37:50;;;;;;;0.10;0.10;;;10.50;1.00;;;;;;4989621;28;20058;-83
2024/04/01 01:40:16;;;;;;;0.20;0.20;;;10.50;1.00;;;;;;4991496;28;20498;-83
2024/04/01 01:42:42;;;;;;;0.20;0.20;;;10.50;1.00;;;;;;4990883;28;20513;-83
2024/04/01 01:45:08;;;;;;;0.10;0.10;;;10.30;1.00;;;;;;4990297;28;20133;-83
2024/04/01 01:47:35;;;;;;;0.20;0.20;;;10.20;1.00;;;;;;4991223;28;20047;-83
2024/04/01 01:50:02;;;;;;;0.15;0.15;;;10.40;1.00;;;;;;4982557;28;20054;-84
2024/04/01 01:52:28;;;;;;;0.20;0.20;;;10.30;1.00;;;;;;4971704;28;20141;-83
2024/04/01 01:54:54;;;;;;;0.10;0.10;;;10.30;1.00;;;;;;4971035;28;20262;-83
2024/04/01 01:57:19;;;;;;;0.10;0.10;;;10.00;1.00;;;;;;4971201;28;20133;-83
2024/04/01 01:59:45;;;;;;;0.20;0.20;;;9.90;1.00;;;;;;4989341;28;20506;-83
2024/04/01 02:02:12;;;;;;;0.20;0.20;;;10.40;1.00;;;;;;4991264;28;20081;-83
2024/04/01 02:04:38;;;;;;;0.10;0.10;;;10.50;1.00;;;;;;4988901;28;20046;-83
2024/04/01 02:07:05;;;;;;;0.20;0.20;;;10.00;1.00;;;;;;4990129;28;20061;-84
2024/04/01 02:09:31;;;;;;;0.20;0.20;;;10.10;1.00;;;;;;5007124;28;20134;-85
2024/04/01 02:11:58;;;;;;;0.10;0.10;;;10.10;1.00;;;;;;4989126;28;20587;-83
2024/04/01 02:14:24;;;;;;;0.10;0.10;;;10.10;1.00;;;;;;5007311;28;20057;-83
2024/04/01 02:16:49;;;;;;;0.10;0.10;;;10.20;1.00;;;;;;4990241;28;20050;-83
2024/04/01 02:19:15;;;;;;;0.13;0.13;;;10.10;1.00;;;;;;4989801;28;20454;-83
2024/04/01 02:21:44;;;;;;;0.17;0.17;;;10.10;1.00;;;;;;4990399;28;20050;-83
2024/04/01 02:24:10;;;;;;;0.10;0.10;;;10.10;1.00;;;;;;4990084;28;20382;-83
2024/04/01 02:26:36;;;;;;;0.10;0.10;;;10.00;1.00;;;;;;4987768;28;20061;-82
2024/04/01 02:29:05;;;;;;;0.20;0.20;;;10.00;1.00;;;;;;4988904;28;20129;-83
2024/04/01 02:31:30;;;;;;;0.10;0.10;;;10.00;1.00;;;;;;4990616;28;20054;-83
2024/04/01 02:33:56;;;;;;;0.10;0.10;;;10.10;1.00;;;;;;4987632;28;20501;-83
2024/04/01 02:36:21;;;;;;;0.10;0.10;;;10.00;1.00;;;;;;4991742;28;20446;-83
2024/04/01 02:38:50;;;;;;;0.10;0.10;;;9.90;1.00;;;;;;4990431;28;20513;-83
2024/04/01 02:41:15;;;;;;;0.10;0.10;;;9.90;1.00;;;;;;4989999;28;20402;-83
2024/04/01 02:43:43;;;;;;;0.10;0.10;;;9.80;1.00;;;;;;4989447;28;20057;-83
2024/04/01 02:46:08;;;;;;;0.20;0.20;;;9.90;1.00;;;;;;4990276;28;20065;-83
2024/04/01 02:48:34;;;;;;;0.10;0.10;;;9.70;1.00;;;;;;4988281;28;20042;-83
2024/04/01 02:51:00;;;;;;;0.20;0.20;;;9.90;1.00;;;;;;4983445;28;20042;-84
2024/04/01 02:53:26;;;;;;;0.10;0.10;;;9.80;1.00;;;;;;4988505;28;20482;-83
2024/04/01 02:55:51;;;;;;;0.20;0.20;;;9.80;1.00;;;;;;4990014;28;20061;-83
2024/04/01 02:58:17;;;;;;;0.10;0.10;;;9.80;1.00;;;;;;4988638;28;20459;-83
2024/04/01 03:00:45;;;;;;;0.10;0.10;;;9.70;1.00;;;;;;4989231;28;20053;-84
2024/04/01 03:03:14;;;;;;;0.10;0.10;;;9.70;1.00;;;;;;4989766;28;20636;-84
2024/04/01 03:05:40;;;;;;;0.10;0.10;;;9.70;1.00;;;;;;4990019;28;20051;-84
2024/04/01 03:08:07;;;;;;;0.10;0.10;;;9.80;1.00;;;;;;4988377;28;20088;-83
2024/04/01 03:10:34;;;;;;;0.20;0.20;;;9.90;1.00;;;;;;4990372;28;20061;-84
2024/04/01 03:13:04;;;;;;;0.10;0.10;;;9.60;1.00;;;;;;4970679;28;20554;-84
2024/04/01 03:15:30;;;;;;;0.20;0.20;;;9.60;1.00;;;;;;4986320;28;20134;-84
2024/04/01 03:17:56;;;;;;;0.10;0.10;;;9.60;1.00;;;;;;4987871;28;20058;-83
2024/04/01 03:20:22;;;;;;;0.20;0.20;;;9.70;1.00;;;;;;4989399;28;20050;-84
2024/04/01 03:22:47;;;;;;;0.10;0.10;;;9.80;1.00;;;;;;4988386;28;20479;-83
2024/04/01 03:25:13;;;;;;;0.20;0.20;;;9.80;1.00;;;;;;4994696;28;20099;-85
2024/04/01 03:27:39;;;;;;;0.10;0.10;;;9.70;1.00;;;;;;4993293;28;20080;-84
2024/04/01 03:30:05;;;;;;;0.10;0.10;;;9.30;1.00;;;;;;4988888;28;20054;-83
2024/04/01 03:32:31;;;;;;;0.10;0.10;;;9.60;1.00;;;;;;4989947;28;20482;-84
2024/04/01 03:34:56;;;;;;;0.10;0.10;;;9.60;1.00;;;;;;4988196;28;20073;-83
2024/04/01 03:37:22;;;;;;;0.10;0.10;;;10.00;1.00;;;;;;4989936;28;20046;-83
2024/04/01 03:39:49;;;;;;;0.10;0.10;;;9.50;1.00;;;;;;4992714;28;20050;-83
2024/04/01 03:42:15;;;;;;;0.10;0.10;;;9.80;1.00;;;;;;4993840;28;20494;-84
2024/04/01 03:44:40;;;;;;;0.20;0.20;;;9.80;1.00;;;;;;4992320;28;20046;-83
2024/04/01 03:47:07;;;;;;;0.10;0.10;;;9.50;1.00;;;;;;4993380;28;20081;-83
2024/04/01 03:49:33;;;;;;;0.20;0.20;;;9.90;1.00;;;;;;4991391;28;20096;-84
2024/04/01 03:51:58;;;;;;;0.10;0.10;;;10.10;1.00;;;;;;4986192;28;20062;-84
2024/04/01 03:54:24;;;;;;;0.10;0.10;;;9.40;1.00;;;;;;4992727;28;20050;-83
2024/04/01 03:56:50;;;;;;;0.20;0.20;;;9.40;1.00;;;;;;4992227;28;20092;-84
2024/04/01 03:59:15;;;;;;;0.10;0.10;;;9.40;1.00;;;;;;4992942;28;20045;-84
2024/04/01 04:01:47;;;;;;;0.10;0.10;;;9.40;1.00;;;;;;4992973;28;20054;-83
2024/04/01 04:04:13;;;;;;;0.20;0.20;;;9.40;1.00;;;;;;4998250;28;20050;-83
2024/04/01 04:06:40;;;;;;;0.10;0.10;;;9.40;1.00;;;;;;5012679;28;20095;-83
2024/04/01 04:09:18;;;;;;;0.10;0.10;;;9.50;1.00;;;;;;5011950;28;20079;-83
2024/04/01 04:11:50;;;;;;;0.20;0.20;;;9.30;1.00;;;;;;5002902;28;20054;-83
2024/04/01 04:14:20;;;;;;;0.20;0.20;;;9.30;1.00;;;;;;4993012;28;20057;-84
2024/04/01 04:16:46;;;;;;;0.10;0.10;;;9.30;1.00;;;;;;4991151;28;20109;-84
2024/04/01 04:19:13;;;;;;;0.10;0.10;;;9.30;1.00;;;;;;4990753;28;20081;-83
2024/04/01 04:21:39;;;;;;;0.20;0.20;;;9.20;1.00;;;;;;4992703;28;20050;-83
2024/04/01 04:24:05;;;;;;;0.17;0.17;;;9.20;1.00;;;;;;4992214;28;20053;-84
2024/04/01 04:26:30;;;;;;;0.10;0.10;;;9.20;1.00;;;;;;4992345;28;20053;-84
2024/04/01 04:28:56;;;;;;;0.10;0.10;;;9.20;1.00;;;;;;4991809;28;20042;-83
2024/04/01 04:31:22;;;;;;;0.10;0.10;;;9.30;1.00;;;;;;4993462;28;20376;-84
2024/04/01 04:33:48;;;;;;;0.10;0.10;;;9.20;1.00;;;;;;4990223;28;20046;-84
2024/04/01 04:36:14;;;;;;;0.15;0.15;;;9.30;1.00;;;;;;4992915;28;20387;-83
2024/04/01 04:38:39;;;;;;;0.20;0.20;;;9.20;1.00;;;;;;4991396;28;20055;-83
2024/04/01 04:41:05;;;;;;;0.20;0.20;;;9.40;1.00;;;;;;4991804;28;20349;-84
2024/04/01 04:43:31;;;;;;;0.10;0.10;;;9.10;1.00;;;;;;4992326;28;20042;-84
2024/04/01 04:45:59;;;;;;;0.10;0.10;;;9.20;1.00;;;;;;4991271;28;20061;-83
2024/04/01 04:48:28;;;;;;;0.10;0.10;;;9.10;1.00;;;;;;4990571;28;20454;-84
2024/04/01 04:50:54;;;;;;;0.10;0.10;;;9.10;1.00;;;;;;4991789;28;20058;-84
2024/04/01 04:53:20;;;;;;;0.20;0.20;;;9.10;1.00;;;;;;4979944;28;20436;-84
2024/04/01 04:55:46;;;;;;;0.10;0.10;;;9.10;1.00;;;;;;4971465;28;20050;-84
2024/04/01 04:58:11;;;;;;;0.20;0.20;;;9.10;1.00;;;;;;4972726;28;20435;-84
2024/04/01 05:00:37;;;;;;;0.10;0.10;;;9.10;1.00;;;;;;4972329;28;20049;-84
2024/04/01 05:03:06;;;;;;;0.20;0.20;;;9.10;1.00;;;;;;4971172;28;20049;-83
2024/04/01 05:05:32;;;;;;;0.10;0.10;;;9.10;1.00;;;;;;5007946;28;20103;-83
2024/04/01 05:07:58;;;;;;;0.20;0.20;;;9.10;1.00;;;;;;5010007;28;20394;-83
2024/04/01 05:10:23;;;;;;;0.10;0.10;;;9.00;1.00;;;;;;5011480;28;20084;-84
2024/04/01 05:12:49;;;;;;;0.10;0.10;;;9.10;1.00;;;;;;4976636;28;20047;-83
2024/04/01 05:15:16;;;;;;;0.10;0.10;;;9.10;1.00;;;;;;4978224;28;20034;-84
2024/04/01 05:17:41;;;;;;;0.10;0.10;;;9.10;1.00;;;;;;4990997;28;20050;-83
2024/04/01 05:20:13;;;;;;;0.10;0.10;;;9.10;1.00;;;;;;4990504;28;20542;-83
2024/04/01 05:22:39;;;;;;;0.15;0.15;;;9.10;1.00;;;;;;4991147;28;20129;-84
2024/04/01 05:25:04;;;;;;;0.10;0.10;;;9.10;1.00;;;;;;4991319;28;20134;-84
2024/04/01 05:27:30;;;;;;;0.10;0.10;;;9.10;1.00;;;;;;4991680;28;20085;-84
2024/04/01 05:30:04;;;;;;;0.10;0.10;;;9.20;1.00;;;;;;4992786;28;20146;-85
2024/04/01 05:32:31;;;;;;;0.20;0.20;;;9.10;1.00;;;;;;4996638;28;20077;-84
2024/04/01 05:34:57;;;;;;;0.20;0.20;;;9.10;1.00;;;;;;4989936;28;20088;-83
2024/04/01 05:37:23;;;;;;;0.20;0.20;;;9.00;1.00;;;;;;4991628;28;20490;-83
2024/04/01 05:39:53;;;;;;;0.10;0.10;;;9.00;1.00;;;;;;4990410;28;20050;-85
2024/04/01 05:42:21;;;;;;;0.10;0.10;;;9.10;1.00;;;;;;4990854;28;20169;-83
2024/04/01 05:44:48;;;;;;;0.10;0.10;;;9.00;1.00;;;;;;4989548;28;20046;-83
2024/04/01 05:47:14;;;;;;;0.15;0.15;;;9.00;1.00;;;;;;4990485;28;20120;-83
2024/04/01 05:49:40;;;;;;;0.10;0.10;;;9.30;1.00;;;;;;4990859;28;20594;-84
2024/04/01 05:52:06;;;;;;;0.10;0.10;;;9.00;1.00;;;;;;4990657;28;20137;-83
2024/04/01 05:54:32;;;;;;;0.10;0.10;;;9.00;1.00;;;;;;4985630;28;20132;-84
2024/04/01 05:56:58;;;;;;;0.17;0.17;;;9.00;1.00;;;;;;4991127;28;20042;-83
2024/04/01 05:59:28;;;;;;;0.10;0.10;;;9.00;1.00;;;;;;4991070;28;20057;-84
2024/04/01 06:01:55;;;;;;;0.10;0.10;;;9.00;1.00;;;;;;4990716;28;20059;-84
2024/04/01 06:04:21;;;;;;;0.10;0.10;;;9.10;1.00;;;;;;4989714;28;20049;-83
2024/04/01 06:06:47;;;;;;;0.10;0.10;;;9.10;1.00;;;;;;4989192;28;20050;-83
2024/04/01 06:09:13;;;;;;;0.20;0.20;;;9.10;1.00;;;;;;4990707;28;20205;-83
2024/04/01 06:11:40;;;;;;;0.20;0.20;;;9.10;1.00;;;;;;4989797;28;20050;-83
2024/04/01 06:14:06;;;;;;;0.20;0.20;;;9.10;1.00;;;;;;4990944;28;20147;-84
2024/04/01 06:16:31;;;;;;;0.10;0.10;;;9.20;1.00;;;;;;4992152;28;20049;-84
2024/04/01 06:18:57;;;;;;;0.10;0.10;;;9.10;1.00;;;;;;4988363;28;20401;-84
2024/04/01 06:21:22;;;;;;;0.10;0.10;;;9.20;1.00;;;;;;4990952;28;20466;-84
2024/04/01 06:23:48;;;;;;;0.10;0.10;;;9.30;1.00;;;;;;4989781;28;20048;-84
2024/04/01 06:26:14;;;;;;;0.20;0.20;;;9.30;1.00;;;;;;4990126;28;20145;-83
2024/04/01 06:28:39;;;;;;;0.10;0.10;;;9.50;1.00;;;;;;4990205;28;20070;-84
2024/04/01 06:31:05;;;;;;;0.20;0.20;;;9.40;1.00;;;;;;4990640;28;20058;-83
2024/04/01 06:33:33;;;;;;;0.10;0.10;;;9.40;1.00;;;;;;4988629;28;20043;-84
2024/04/01 06:36:03;;;;;;;0.13;0.13;;;9.50;1.00;;;;;;4988501;28;20062;-84
2024/04/01 06:38:29;;;;;;;0.10;0.10;;;9.50;1.00;;;;;;4989663;28;20410;-84
2024/04/01 06:40:56;;;;;;;0.20;0.20;;;9.60;1.00;;;;;;4989934;28;20054;-83
2024/04/01 06:43:22;;;;;;;0.10;0.10;;;9.60;1.00;;;;;;4995248;28;20053;-83
2024/04/01 06:45:55;;;;;;;0.13;0.13;;;9.60;1.00;;;;;;4993071;28;20054;-84
2024/04/01 06:48:21;;;;;;;0.20;0.20;;;9.60;1.00;;;;;;4990340;28;20232;-84
2024/04/01 06:50:47;;;;;;;0.20;0.20;;;9.70;1.00;;;;;;4988252;28;20371;-84
2024/04/01 06:53:13;;;;;;;0.20;0.20;;;9.70;1.00;;;;;;4988961;28;20054;-84
2024/04/01 06:55:39;;;;;;;0.20;0.20;;;9.80;1.00;;;;;;4983554;28;20150;-84
2024/04/01 06:58:08;;;;;;;0.20;0.20;;;9.80;1.00;;;;;;4976793;28;20077;-83
2024/04/01 07:00:34;;;;;;;0.10;0.10;;;9.90;1.00;;;;;;4989476;28;20065;-84
2024/04/01 07:02:59;;;;;;;0.17;0.17;;;9.90;1.00;;;;;;4988637;28;20046;-84
2024/04/01 07:05:25;;;;;;;0.13;0.13;;;10.00;1.00;;;;;;4989956;28;20490;-84
2024/04/01 07:07:50;;;;;;;0.20;0.20;;;10.00;1.00;;;;;;4988287;28;20050;-83
2024/04/01 07:10:16;;;;;;;0.10;0.10;;;10.10;1.00;;;;;;4989877;28;20054;-83
2024/04/01 07:12:42;;;;;;;0.10;0.10;;;10.10;1.00;;;;;;4993593;28;20053;-84
2024/04/01 07:15:08;;;;;;;0.10;0.10;;;10.10;1.00;;;;;;4995736;28;20166;-84
2024/04/01 07:17:38;;;;;;;0.10;0.10;;;9.80;1.00;;;;;;4996924;28;20133;-84
2024/04/01 07:20:05;;;;;;;0.20;0.20;;;10.10;1.00;;;;;;4995474;28;20494;-84
2024/04/01 07:22:31;;;;;;;0.20;0.20;;;10.30;1.00;;;;;;4993995;28;20395;-85
2024/04/01 07:24:57;;;;;;;0.10;0.10;;;10.30;1.00;;;;;;4995828;28;20080;-84
2024/04/01 07:27:22;;;;;;;0.20;0.20;;;10.40;1.00;;;;;;4996545;28;20053;-84
2024/04/01 07:29:49;;;;;;;0.10;0.10;;;10.50;1.00;;;;;;4995071;28;20045;-84
2024/04/01 07:32:14;;;;;;;0.20;0.20;;;10.60;1.00;;;;;;4995526;28;20106;-83
2024/04/01 07:34:40;;;;;;;0.10;0.10;;;10.80;1.00;;;;;;4995386;28;20050;-83
2024/04/01 07:37:05;;;;;;;0.10;0.10;;;10.90;1.00;;;;;;4994872;28;20054;-83
2024/04/01 07:39:31;;;;;;;0.10;0.10;;;10.90;1.00;;;;;;4995999;28;20061;-83
2024/04/01 07:41:57;;;;;;;0.10;0.10;;;10.90;1.00;;;;;;4994864;28;20046;-84
2024/04/01 07:44:22;;;;;;;0.20;0.20;;;10.90;1.00;;;;;;4996336;28;20050;-83
2024/04/01 07:46:48;;;;;;;0.20;0.20;;;11.00;1.00;;;;;;4995391;28;20051;-83
2024/04/01 07:49:13;;;;;;;0.20;0.20;;;11.00;1.00;;;;;;4994152;28;20088;-83
2024/04/01 07:51:41;;;;;;;0.10;0.10;;;11.10;1.00;;;;;;4996126;28;20050;-83
2024/04/01 07:54:06;;;;;;;0.17;0.17;;;11.10;1.00;;;;;;4995657;28;20050;-84
2024/04/01 07:56:32;;;;;;;0.20;0.20;;;11.10;1.00;;;;;;4989819;28;20064;-83
2024/04/01 07:58:58;;;;;;;0.20;0.20;;;11.10;1.00;;;;;;4976249;28;20402;-83
2024/04/01 08:01:23;;;;;;;0.30;0.30;;;11.10;1.00;;;;;;4986768;28;20050;-83
2024/04/01 08:03:49;;;;;;;0.17;0.17;;;11.10;1.00;;;;;;4993576;28;20050;-84
2024/04/01 08:06:15;;;;;;;0.40;0.40;;;11.10;1.00;;;;;;4996441;28;20096;-83
2024/04/01 08:08:41;;;;;;;0.20;0.20;;;11.20;1.00;;;;;;5011471;28;20129;-83
2024/04/01 08:11:07;;;;;;;0.10;0.10;;;11.20;1.00;;;;;;4998965;28;20106;-83
2024/04/01 08:13:32;;;;;;;0.10;0.10;;;11.20;1.00;;;;;;5005793;28;20121;-83
2024/04/01 08:16:03;;;;;;;0.20;0.20;;;11.20;1.00;;;;;;5000526;28;20156;-83
2024/04/01 08:18:29;;;;;;;0.20;0.20;;;11.30;1.00;;;;;;4994857;28;20105;-83
2024/04/01 08:20:59;;;;;;;0.20;0.20;;;11.30;1.00;;;;;;4996867;28;20061;-83
2024/04/01 08:23:25;;;;;;;0.20;0.20;;;11.40;1.00;;;;;;4994065;28;20049;-84
2024/04/01 08:25:51;;;;;;;0.10;0.10;;;11.40;1.00;;;;;;4991663;28;20610;-84
2024/04/01 08:28:17;;;;;;;0.10;0.10;;;11.60;1.00;;;;;;4992400;28;20066;-83
2024/04/01 08:30:43;;;;;;;0.17;0.17;;;11.40;1.00;;;;;;4991435;28;20046;-83
2024/04/01 08:33:09;;;;;;;0.10;0.10;;;11.50;1.00;;;;;;4992229;28;20042;-83
2024/04/01 08:35:35;;;;;;;0.20;0.20;;;11.40;1.00;;;;;;4992683;28;20149;-83
2024/04/01 08:38:01;;;;;;;0.10;0.10;;;11.40;1.00;;;;;;4991015;28;20137;-83
2024/04/01 08:40:41;;;;;;;0.10;0.10;;;11.50;1.00;;;;;;4992760;28;20050;-84
2024/04/01 08:43:13;;;;;;;0.10;0.10;;;11.50;1.00;;;;;;4992005;28;20061;-83
2024/04/01 08:45:38;;;;;;;0.20;0.20;;;11.50;1.00;;;;;;4991674;28;20133;-83
2024/04/01 08:48:19;;;;;;;0.20;0.20;;;11.40;1.00;;;;;;4990815;28;20597;-83
2024/04/01 08:50:53;;;;;;;0.20;0.20;;;11.60;1.00;;;;;;4992186;28;20078;-83
2024/04/01 08:53:56;;;;;;;0.10;0.10;;;11.60;1.00;;;;;;4991406;28;20058;-83
2024/04/01 08:56:21;;;;;;;0.20;0.20;;;11.60;1.00;;;;;;4956407;28;20058;-83
2024/04/01 08:58:47;;;;;;;0.10;0.10;;;11.50;1.00;;;;;;4990241;28;20042;-83
2024/04/01 09:01:13;;;;;;;0.15;0.15;;;11.80;1.00;;;;;;4991825;28;20054;-83
2024/04/01 09:03:38;;;;;;;0.15;0.15;;;11.80;1.00;;;;;;4990208;28;20046;-83
2024/04/01 09:06:05;;;;;;;0.15;0.15;;;11.70;1.00;;;;;;4991150;28;20153;-83
2024/04/01 09:08:31;;;;;;;0.15;0.15;;;11.80;1.00;;;;;;4991578;28;20406;-83
2024/04/01 09:10:57;;;;;;;0.10;0.10;;;11.80;1.00;;;;;;5007935;28;20042;-83
2024/04/01 09:13:23;;;;;;;0.10;0.10;;;11.90;1.00;;;;;;4991956;28;20042;-83
2024/04/01 09:15:49;;;;;;;0.10;0.10;;;11.90;1.00;;;;;;4991455;28;20077;-83
2024/04/01 09:18:15;;;;;;;0.10;0.10;;;11.90;1.00;;;;;;4990533;28;20314;-84
2024/04/01 09:20:42;;;;;;;0.20;0.20;;;12.00;1.00;;;;;;4990532;28;20155;-83
2024/04/01 09:23:08;;;;;;;0.10;0.10;;;11.90;1.00;;;;;;4991293;28;20081;-84
2024/04/01 09:25:34;;;;;;;0.17;0.17;;;11.90;1.00;;;;;;4991461;28;20077;-84
2024/04/01 09:28:00;;;;;;;0.13;0.13;;;11.90;1.00;;;;;;4989908;28;20054;-83
2024/04/01 09:30:26;;;;;;;0.10;0.10;;;11.90;1.00;;;;;;4990828;28;20041;-83
2024/04/01 09:32:51;;;;;;;0.10;0.10;;;11.90;1.00;;;;;;4990782;28;20049;-83
2024/04/01 09:35:18;;;;;;;0.28;0.28;;;12.00;1.00;;;;;;4988797;28;20088;-83
2024/04/01 09:37:44;;;;;;;0.10;0.10;;;11.90;1.00;;;;;;4989008;28;20051;-83
2024/04/01 09:40:10;;;;;;;0.10;0.10;;;11.90;1.00;;;;;;4991083;28;20608;-84
2024/04/01 09:42:36;;;;;;;0.10;0.10;;;11.90;1.00;;;;;;4997391;28;20081;-83
2024/04/01 09:45:04;;;;;;;0.20;0.20;;;11.90;1.00;;;;;;4993556;28;20562;-84
2024/04/01 09:47:31;;;;;;;0.17;0.17;;;11.90;1.00;;;;;;4991232;28;20054;-83
2024/04/01 09:49:59;;;;;;;0.20;0.20;;;11.80;1.00;;;;;;4988758;28;20050;-83
2024/04/01 09:52:25;;;;;;;0.10;0.10;;;11.90;1.00;;;;;;4992080;28;20119;-83
2024/04/01 09:54:58;;;;;;;0.20;0.20;;;11.90;1.00;;;;;;4990561;28;20155;-83
2024/04/01 09:57:26;;;;;;;0.20;0.20;;;11.90;1.00;;;;;;4986801;28;20053;-83
2024/04/01 10:00:06;;;;;;;0.10;0.10;;;11.90;1.00;;;;;;4970582;28;20042;-83
2024/04/01 10:02:53;;;;;;;0.20;0.20;;;11.90;1.00;;;;;;4971003;28;20406;-83
2024/04/01 10:05:38;;;;;;;0.20;0.20;;;11.90;1.00;;;;;;4988162;28;20050;-85
2024/04/01 10:08:24;;;;;;;0.20;0.20;;;12.00;1.00;;;;;;4990230;28;20078;-82
2024/04/01 10:11:25;;;;;;;0.20;0.20;;;12.00;1.00;;;;;;4988274;28;20046;-82
2024/04/01 10:14:27;;;;;;;0.20;0.20;;;12.00;1.00;;;;;;4971879;28;20101;-82
2024/04/01 10:17:17;;;;;;;0.10;0.10;;;12.00;1.00;;;;;;4987113;28;20050;-82
2024/04/01 10:20:06;;;;;;;0.20;0.20;;;12.00;1.00;;;;;;4989064;28;20050;-82
2024/04/01 10:23:25;;;;;;;0.10;0.10;;;12.00;1.00;;;;;;4989886;28;20129;-82
2024/04/01 10:26:22;;;;;;;0.10;0.10;;;12.00;1.00;;;;;;4896297;29;20445;-83
2024/04/01 10:29:25;;;;;;;0.10;0.10;;;11.80;1.00;;;;;;4912015;29;20048;-82
2024/04/01 10:32:24;;;;;;;0.10;0.10;;;12.00;1.00;;;;;;4982674;28;20148;-83
2024/04/01 10:35:27;;;;;;;0.13;0.13;;;12.10;1.00;;;;;;4988625;28;20054;-83
2024/04/01 10:38:24;;;;;;;0.13;0.13;;;12.20;1.00;;;;;;4989111;28;20054;-82
2024/04/01 10:41:17;;;;;;;0.20;0.20;;;12.20;1.00;;;;;;4989964;28;20058;-82
2024/04/01 10:43:51;;;;;;;0.10;0.10;;;12.30;1.00;;;;;;4989545;28;20053;-82
2024/04/01 10:46:40;;;;;;;0.10;0.10;;;12.30;1.00;;;;;;4987171;28;20050;-82
2024/04/01 10:49:43;;;;;;;0.10;0.10;;;12.80;1.00;;;;;;4988838;28;20133;-82
2024/04/01 10:52:35;;;;;;;0.10;0.10;;;12.70;1.00;;;;;;4991991;28;20121;-81
2024/04/01 10:55:01;;;;;;;0.20;0.20;;;12.70;1.00;;;;;;4989579;28;20066;-82
2024/04/01 10:58:04;;;;;;;0.10;0.10;;;12.80;1.00;;;;;;4990063;28;20056;-82
2024/04/01 11:00:35;;;;;;;0.20;0.20;;;13.00;1.00;;;;;;4987652;28;20042;-82
2024/04/01 11:03:19;;;;;;;0.20;0.20;;;12.90;1.00;;;;;;4997209;28;20441;-81
2024/04/01 11:05:58;;;;;;;0.10;0.10;;;13.00;1.00;;;;;;5008358;28;20046;-82
2024/04/01 11:08:53;;;;;;;0.20;0.20;;;12.90;1.00;;;;;;5008858;28;20042;-82
2024/04/01 11:11:36;;;;;;;0.10;0.10;;;13.00;1.00;;;;;;5000778;28;20140;-81
2024/04/01 11:14:03;;;;;;;0.15;0.15;;;13.00;1.00;;;;;;4969059;28;20061;-81
2024/04/01 11:16:31;;;;;;;0.10;0.10;;;13.10;1.00;;;;;;4989117;28;20038;-82
2024/04/01 11:19:28;;;;;;;0.10;0.10;;;13.10;1.00;;;;;;4987331;28;20499;-82
2024/04/01 11:22:01;;;;;;;0.15;0.15;;;13.20;1.00;;;;;;4988672;28;20057;-82
2024/04/01 11:25:13;;;;;;;0.20;0.20;;;13.20;1.00;;;;;;4990086;28;20069;-82
2024/04/01 11:27:52;;;;;;;0.10;0.10;;;13.20;1.00;;;;;;4988983;28;20056;-81
2024/04/01 11:30:26;;;;;;;0.10;0.10;;;13.20;1.00;;;;;;4989790;28;20062;-81
2024/04/01 11:33:07;;;;;;;0.20;0.20;;;13.30;1.00;;;;;;4988926;28;20057;-81
2024/04/01 11:35:46;;;;;;;0.15;0.15;;;13.30;1.00;;;;;;4989120;28;20046;-81
2024/04/01 11:38:41;;;;;;;0.10;0.10;;;13.20;1.00;;;;;;4989032;28;20050;-82
2024/04/01 11:41:11;;;;;;;0.10;0.10;;;13.30;1.00;;;;;;5005520;28;20050;-82
2024/04/01 11:43:38;;;;;;;0.20;0.20;;;13.20;1.00;;;;;;4989275;28;20061;-81
2024/04/01 11:46:07;;;;;;;0.10;0.10;;;13.20;1.00;;;;;;4988338;28;20133;-82
2024/04/01 11:48:34;;;;;;;0.10;0.10;;;13.20;1.00;;;;;;4987753;28;20043;-81
2024/04/01 11:51:03;;;;;;;0.10;0.10;;;13.30;1.00;;;;;;4989515;28;20474;-82
2024/04/01 11:53:42;;;;;;;0.10;0.10;;;13.30;1.00;;;;;;4988846;28;20126;-83
2024/04/01 11:56:07;;;;;;;0.10;0.10;;;13.40;1.00;;;;;;4989212;28;20148;-83
2024/04/01 11:58:33;;;;;;;0.20;0.20;;;13.40;1.00;;;;;;4987331;28;20581;-81
2024/04/01 12:01:01;;;;;;;0.20;0.20;;;13.50;1.00;;;;;;4989545;28;20137;-81
2024/04/01 12:03:41;;;;;;;0.10;0.10;;;13.60;1.00;;;;;;5004114;28;20523;-81
2024/04/01 12:06:08;;;;;;;0.10;0.10;;;13.60;1.00;;;;;;4998638;28;20074;-81
2024/04/01 12:08:35;;;;;;;0.10;0.10;;;13.60;1.00;;;;;;4993729;28;20050;-81
2024/04/01 12:11:05;;;;;;;0.10;0.10;;;13.60;1.00;;;;;;4989152;28;20082;-82
2024/04/01 12:13:31;;;;;;;0.10;0.10;;;13.60;1.00;;;;;;4973244;28;20074;-80
2024/04/01 12:15:59;;;;;;;0.15;0.15;;;13.60;1.00;;;;;;4972689;28;20098;-83
2024/04/01 12:18:25;;;;;;;0.10;0.10;;;13.70;1.00;;;;;;4987992;28;20039;-81
2024/04/01 12:20:55;;;;;;;0.20;0.20;;;13.60;1.00;;;;;;4973362;28;20058;-81
2024/04/01 12:23:27;;;;;;;0.10;0.10;;;13.60;1.00;;;;;;4972394;28;20042;-81
2024/04/01 12:26:04;;;;;;;0.75;0.30;;;13.60;1.00;;;;;;4974120;28;20097;-80
2024/04/01 12:28:29;;;;;;;0.10;0.10;;;13.60;1.00;;;;;;4973124;28;20491;-81
2024/04/01 12:30:58;;;;;;;0.20;0.20;;;13.50;1.00;;;;;;4971925;28;20065;-80
2024/04/01 12:33:28;;;;;;;0.10;0.10;;;13.60;1.00;;;;;;4972262;28;20062;-81
2024/04/01 12:35:54;;;;;;;0.10;0.10;;;13.50;1.00;;;;;;4983245;28;20061;-81
2024/04/01 12:38:22;;;;;;;0.10;0.10;;;13.50;1.00;;;;;;4990663;28;20418;-82
2024/04/01 12:40:51;;;;;;;0.10;0.10;;;13.60;1.00;;;;;;4992001;28;20042;-81
2024/04/01 12:43:19;;;;;;;0.10;0.10;;;13.50;1.00;;;;;;4992612;28;20613;-80
2024/04/01 12:45:46;;;;;;;0.20;0.20;;;13.40;1.00;;;;;;4991394;28;20051;-81
2024/04/01 12:48:14;;;;;;;0.20;0.20;;;13.30;1.00;;;;;;4991007;28;20557;-81
2024/04/01 12:50:51;;;;;;;0.10;0.10;;;13.20;1.00;;;;;;4992091;28;20054;-85
2024/04/01 12:53:33;;;;;;;0.20;0.20;;;13.10;1.00;;;;;;4990705;28;20074;-83
2024/04/01 12:56:31;;;;;;;0.10;0.10;;;13.00;1.00;;;;;;4991941;28;20096;-81
2024/04/01 12:59:24;;;;;;;0.20;0.20;;;13.00;1.00;;;;;;4989696;28;20074;-81
2024/04/01 13:01:52;;;;;;;0.20;0.20;;;13.00;1.00;;;;;;4979480;28;20120;-83
2024/04/01 13:04:39;;;;;;;0.10;0.10;;;12.80;1.00;;;;;;5008976;28;20041;-81
2024/04/01 13:07:17;;;;;;;0.20;0.20;;;12.90;1.00;;;;;;5011345;28;20085;-81
2024/04/01 13:09:49;;;;;;;0.17;0.17;;;12.80;1.00;;;;;;5010242;28;20052;-81
2024/04/01 13:12:32;;;;;;;0.10;0.10;;;12.80;1.00;;;;;;4998130;28;20568;-81
2024/04/01 13:15:13;;;;;;;0.10;0.10;;;12.70;1.00;;;;;;4991280;28;20137;-82